Time;durP1;ratioP1;P1;durP2;ratioP2;P2;SDS_P1;SDS_P2;PMS_P1;PMS_P2;Temp;Humidity;BMP_temperature;BMP_pressure;BME280_temperature;BME280_humidity;BME280_pressure;Samples;Min_cycle;Max_cycle;Signal;HPM_P1;HPM_P2
2021/08/25 00:19:24;286353.00;0.95;494.46;83197.00;0.28;144.56;;;;;16.60;3.70;;;;;;2282628;61;1292;-85
2021/08/25 00:31:42;493364.00;1.64;850.40;101353.00;0.34;175.91;;;;;16.30;3.50;;;;;;2281882;60;1964;-87
2021/08/25 01:48:11;22455.00;0.07;39.52;0.00;0.00;0.62;;;;;15.80;4.00;;;;;;2404271;39;3607;31
2021/08/25 01:58:03;36977.00;0.12;64.66;0.00;0.00;0.62;;;;;15.80;3.30;;;;;;2278671;60;1397;-86
2021/08/25 02:00:30;20236.00;0.07;35.68;0.00;0.00;0.62;;;;;15.60;4.50;;;;;;2272636;61;1325;-88
2021/08/25 02:05:25;74618.00;0.25;129.74;0.00;0.00;0.62;;;;;15.40;7.00;;;;;;2282491;60;1403;-87
2021/08/25 02:54:41;189319.00;0.63;327.54;69792.00;0.23;121.40;;;;;16.60;1.00;;;;;;2278826;61;1294;-85
2021/08/25 02:57:09;180705.00;0.60;312.70;73105.00;0.24;127.13;;;;;16.60;1.00;;;;;;2276898;60;969;-85
2021/08/25 03:14:27;207847.00;0.69;359.43;74063.00;0.25;128.78;;;;;16.80;1.00;;;;;;2278812;60;1397;-85
2021/08/25 03:24:18;195132.00;0.65;337.54;75469.00;0.25;131.21;;;;;16.60;1.00;;;;;;2278559;60;1397;-85
2021/08/25 03:29:12;282445.00;0.94;487.74;70052.00;0.23;121.85;;;;;16.20;1.00;;;;;;2524307;39;3670;31
2021/08/25 07:42:32;489313.00;1.63;843.43;8991.00;0.03;16.20;;;;;28.00;1.00;;;;;;2282271;61;1285;-86
2021/08/25 07:44:59;388994.00;1.30;670.89;0.00;0.00;0.62;;;;;28.50;1.00;;;;;;2280886;61;921;-86
2021/08/25 07:47:26;61884.00;0.21;107.73;0.00;0.00;0.62;;;;;28.80;1.00;;;;;;2280889;61;1141;-86
2021/08/25 07:49:53;54686.00;0.18;95.29;0.00;0.00;0.62;;;;;29.30;1.00;;;;;;2280856;61;1441;-86
2021/08/25 07:52:20;215405.00;0.72;372.44;0.00;0.00;0.62;;;;;29.40;1.00;;;;;;2280810;61;1911;-86
2021/08/25 07:54:47;104873.00;0.35;181.98;0.00;0.00;0.62;;;;;29.20;1.00;;;;;;2280885;61;1103;-87
2021/08/25 07:57:14;152866.00;0.51;264.75;0.00;0.00;0.62;;;;;29.90;1.00;;;;;;2280868;61;1070;-86
2021/08/25 07:59:42;413829.00;1.38;713.58;74612.00;0.25;129.73;;;;;29.90;1.00;;;;;;2280768;61;1380;-87
2021/08/25 08:02:12;151266.00;0.50;261.99;0.00;0.00;0.62;;;;;30.40;1.00;;;;;;2280816;61;1007;-87
2021/08/25 08:04:38;125964.00;0.42;218.37;0.00;0.00;0.62;;;;;30.80;1.00;;;;;;2280720;61;1134;-88
2021/08/25 08:07:05;126593.00;0.42;219.45;17173.00;0.06;30.37;;;;;30.50;1.00;;;;;;2280842;61;1045;-87
2021/08/25 08:09:32;153856.00;0.51;266.45;0.00;0.00;0.62;;;;;31.20;1.00;;;;;;2280761;61;1322;-88
2021/08/25 08:12:06;143350.00;0.48;248.35;0.00;0.00;0.62;;;;;31.20;1.00;;;;;;2280615;61;1921;-88
2021/08/25 08:14:33;0.00;0.00;0.62;0.00;0.00;0.62;;;;;30.60;1.00;;;;;;2280657;61;1066;-86
2021/08/25 08:17:05;0.00;0.00;0.62;0.00;0.00;0.62;;;;;29.70;1.00;;;;;;2280676;61;1133;-88
2021/08/25 08:19:33;151670.00;0.51;262.69;0.00;0.00;0.62;;;;;29.00;1.00;;;;;;2280650;61;1647;-84
2021/08/25 08:22:03;61383.00;0.20;106.87;0.00;0.00;0.62;;;;;29.00;1.00;;;;;;2280783;61;1075;-86
2021/08/25 08:24:30;98444.00;0.33;170.89;0.00;0.00;0.62;;;;;28.30;1.00;;;;;;2280760;61;1019;-85
2021/08/25 08:26:58;0.00;0.00;0.62;0.00;0.00;0.62;;;;;27.40;1.00;;;;;;2280637;61;1806;-84
2021/08/25 08:29:25;87643.00;0.29;152.24;0.00;0.00;0.62;;;;;27.40;1.00;;;;;;2280662;61;1324;-85
2021/08/25 08:31:52;208591.00;0.70;360.71;0.00;0.00;0.62;;;;;27.20;1.00;;;;;;2280647;61;1980;-85
2021/08/25 08:34:21;162104.00;0.54;280.66;0.00;0.00;0.62;;;;;26.50;1.00;;;;;;2280647;61;1127;-85
2021/08/25 08:36:47;192293.00;0.64;332.66;19454.00;0.06;34.32;;;;;26.10;1.00;;;;;;2280660;61;1091;-85
2021/08/25 08:39:15;416861.00;1.39;718.79;107564.00;0.36;186.63;;;;;26.50;1.00;;;;;;2280634;61;1387;-87
2021/08/25 08:41:42;155323.00;0.52;268.98;0.00;0.00;0.62;;;;;25.20;1.00;;;;;;2280626;61;998;-86
2021/08/25 08:44:12;464418.00;1.55;800.59;46721.00;0.16;81.52;;;;;24.70;1.00;;;;;;2280640;61;1139;-87
2021/08/25 08:46:41;283721.00;0.95;489.93;8944.00;0.03;16.12;;;;;24.70;1.00;;;;;;2280618;61;1103;-86
2021/08/25 08:49:09;199291.00;0.66;344.70;0.00;0.00;0.62;;;;;24.40;1.00;;;;;;2280499;61;1672;-86
2021/08/25 08:51:38;226409.00;0.75;391.37;0.00;0.00;0.62;;;;;24.10;1.00;;;;;;2280547;61;1994;-87
2021/08/25 08:54:05;222676.00;0.74;384.95;0.00;0.00;0.62;;;;;24.20;1.00;;;;;;2280640;61;1106;-86
2021/08/25 08:56:33;325406.00;1.08;561.59;16572.00;0.06;29.33;;;;;24.50;1.00;;;;;;2280580;61;1019;-86
2021/08/25 08:59:00;448677.00;1.50;773.51;0.00;0.00;0.62;;;;;24.20;1.00;;;;;;2280534;61;1696;-86
2021/08/25 09:01:27;279861.00;0.93;483.30;25899.00;0.09;45.48;;;;;24.30;1.00;;;;;;2280615;61;918;-86
2021/08/25 09:03:54;180966.00;0.60;313.15;0.00;0.00;0.62;;;;;24.20;1.00;;;;;;2280585;61;1126;-86
2021/08/25 09:06:21;184621.00;0.62;319.45;0.00;0.00;0.62;;;;;23.90;1.00;;;;;;2280577;61;1094;-85
2021/08/25 09:08:58;161990.00;0.54;280.47;0.00;0.00;0.62;;;;;23.60;1.00;;;;;;2280616;61;1071;-85
2021/08/25 09:11:25;91495.00;0.30;158.89;0.00;0.00;0.62;;;;;24.00;1.00;;;;;;2280603;61;1996;-85
2021/08/25 09:13:53;161163.00;0.54;279.04;0.00;0.00;0.62;;;;;24.40;1.00;;;;;;2280578;61;1078;-87
2021/08/25 09:16:27;215866.00;0.72;373.23;66420.00;0.22;115.57;;;;;24.20;1.00;;;;;;2280579;61;1072;-85
2021/08/25 09:19:02;125015048.00;416.72;79157312.00;123366.00;0.41;213.89;;;;;24.10;1.00;;;;;;2280598;61;1154;-88
2021/08/25 09:21:34;248242.00;0.83;428.93;0.00;0.00;0.62;;;;;24.20;1.00;;;;;;2280515;61;1506;-87
2021/08/25 09:24:05;259097.00;0.86;447.60;0.00;0.00;0.62;;;;;24.20;1.00;;;;;;2280552;61;1151;-87
2021/08/25 09:26:32;149921.00;0.50;259.67;0.00;0.00;0.62;;;;;24.10;1.00;;;;;;2280581;61;1106;-86
2021/08/25 09:29:17;85603.00;0.29;148.71;0.00;0.00;0.62;;;;;23.10;1.00;;;;;;2280536;61;1304;-87
2021/08/25 09:31:45;474468.00;1.58;817.88;36994.00;0.12;64.69;;;;;23.00;1.00;;;;;;2280567;61;1994;-86
2021/08/25 09:34:25;117554400.00;391.85;65803156.00;0.00;0.00;0.62;;;;;23.20;1.00;;;;;;2280459;61;1753;-85
2021/08/25 09:37:05;452031.00;1.51;779.28;65808.00;0.22;114.52;;;;;23.50;1.00;;;;;;2280530;61;1155;-86
2021/08/25 09:39:34;159129.00;0.53;275.54;0.00;0.00;0.62;;;;;22.90;1.00;;;;;;2280461;61;1496;-85
2021/08/25 09:42:04;31922.00;0.11;55.91;0.00;0.00;0.62;;;;;22.60;1.00;;;;;;2273336;61;998;-85
2021/08/25 09:44:31;133887.00;0.45;232.03;0.00;0.00;0.62;;;;;22.90;1.00;;;;;;2270037;61;1032;-85
2021/08/25 09:46:58;341215.00;1.14;588.76;0.00;0.00;0.62;;;;;23.10;1.00;;;;;;2280417;61;1134;-85
2021/08/25 09:49:25;193097.00;0.64;334.04;75473.00;0.25;131.22;;;;;23.00;1.00;;;;;;2280420;61;1391;-84
2021/08/25 09:51:54;169381.00;0.56;293.20;71901.00;0.24;125.05;;;;;22.40;1.00;;;;;;2280469;61;1917;-86
2021/08/25 09:54:22;170921.00;0.57;295.85;69249.00;0.23;120.46;;;;;22.60;1.00;;;;;;2280534;61;738;-87
2021/08/25 09:56:53;290680.00;0.97;501.90;119495.00;0.40;207.21;;;;;23.30;1.00;;;;;;2273326;61;1031;-85
2021/08/25 09:59:22;174675.00;0.58;302.32;74434.00;0.25;129.42;;;;;23.00;1.00;;;;;;2273713;61;1476;-84
2021/08/25 10:01:50;867763.00;2.89;1499.57;217591.00;0.73;376.20;;;;;22.70;1.00;;;;;;2281129;61;1023;-84
2021/08/25 10:04:18;169343.00;0.56;293.13;76872.00;0.26;133.63;;;;;22.90;1.00;;;;;;2268481;61;1054;-86
2021/08/25 10:06:46;307860.00;1.03;531.43;117525.00;0.39;203.81;;;;;23.30;1.00;;;;;;2268512;61;1030;-84
2021/08/25 10:09:15;172412.00;0.57;298.42;66210.00;0.22;115.21;;;;;22.80;1.00;;;;;;2268483;61;1345;-84
2021/08/25 10:11:46;334295.00;1.11;576.87;78851.00;0.26;137.05;;;;;22.80;1.00;;;;;;2268462;61;1990;-84
2021/08/25 10:14:17;252993.00;0.84;437.10;67573.00;0.23;117.57;;;;;22.30;1.00;;;;;;2258538;61;989;-84
2021/08/25 10:16:45;268692.00;0.90;464.09;74666.00;0.25;129.82;;;;;22.40;1.00;;;;;;2268515;61;1083;-85
2021/08/25 10:19:30;182690.00;0.61;316.12;69137.00;0.23;120.27;;;;;22.80;1.00;;;;;;2265092;61;1423;-84
2021/08/25 10:21:58;204243.00;0.68;353.23;65798.00;0.22;114.50;;;;;22.60;1.00;;;;;;2268519;61;984;-85
2021/08/25 10:24:25;0.00;0.00;0.62;0.00;0.00;0.62;;;;;22.70;1.00;;;;;;2281091;61;1079;-84
2021/08/25 10:27:08;0.00;0.00;0.62;0.00;0.00;0.62;;;;;22.90;1.00;;;;;;2270588;61;937;-85
2021/08/25 10:30:12;207958.00;0.69;359.62;61302.00;0.20;106.73;;;;;22.60;1.00;;;;;;2280981;61;1360;-84
2021/08/25 10:32:55;243108.00;0.81;420.10;0.00;0.00;0.62;;;;;22.10;1.00;;;;;;2280940;61;1919;-84
2021/08/25 10:35:24;310533.00;1.04;536.03;72658.00;0.24;126.35;;;;;22.20;1.00;;;;;;2280873;61;1184;-85
2021/08/25 10:37:53;184412.00;0.61;319.09;67480.00;0.22;117.41;;;;;22.90;1.00;;;;;;2281043;61;1076;-84
2021/08/25 10:40:32;239268.00;0.80;413.49;77265.00;0.26;134.31;;;;;22.60;1.00;;;;;;2280950;61;1418;-85
2021/08/25 10:43:01;187364.00;0.62;324.17;73910.00;0.25;128.52;;;;;22.60;1.00;;;;;;2280999;61;1087;-85
2021/08/25 10:45:57;227699.00;0.76;393.59;63824.00;0.21;111.09;;;;;22.40;1.00;;;;;;2280951;61;969;-84
2021/08/25 10:48:48;75894.00;0.25;131.94;0.00;0.00;0.62;;;;;22.20;1.00;;;;;;2280943;61;1026;-84
2021/08/25 10:51:38;75513.00;0.25;131.29;0.00;0.00;0.62;;;;;22.20;1.00;;;;;;2273819;61;1302;-85
2021/08/25 10:54:11;24394.00;0.08;42.88;0.00;0.00;0.62;;;;;22.40;1.00;;;;;;2280977;61;1985;-85
2021/08/25 10:56:41;0.00;0.00;0.62;0.00;0.00;0.62;;;;;23.10;1.00;;;;;;2280983;61;1135;-85
2021/08/25 10:59:10;0.00;0.00;0.62;0.00;0.00;0.62;;;;;23.10;1.00;;;;;;2272316;61;1392;-84
2021/08/25 11:01:41;0.00;0.00;0.62;0.00;0.00;0.62;;;;;22.60;1.00;;;;;;2272373;61;1071;-87
2021/08/25 11:04:12;129657.00;0.43;224.74;0.00;0.00;0.62;;;;;23.10;1.00;;;;;;2262370;61;1033;-86
2021/08/25 11:06:51;0.00;0.00;0.62;0.00;0.00;0.62;;;;;23.20;1.00;;;;;;2265456;61;945;-86
2021/08/25 11:09:29;0.00;0.00;0.62;0.00;0.00;0.62;;;;;23.20;1.00;;;;;;2272363;61;1381;-86
2021/08/25 11:12:00;140112.00;0.47;242.76;27463.00;0.09;48.19;;;;;23.60;1.00;;;;;;2272357;61;1923;-86
2021/08/25 11:14:33;60482.00;0.20;105.31;0.00;0.00;0.62;;;;;23.20;1.00;;;;;;2272402;61;922;-85
2021/08/25 11:17:09;15079.00;0.05;26.75;0.00;0.00;0.62;;;;;23.10;1.00;;;;;;2263643;61;992;-84
2021/08/25 11:19:40;101092.00;0.34;175.46;0.00;0.00;0.62;;;;;23.10;1.00;;;;;;2261640;61;1338;-86
2021/08/25 11:22:08;1212239.00;4.04;2112.36;429538.00;1.43;740.59;;;;;23.10;1.00;;;;;;2268313;61;1017;-85
2021/08/25 11:24:41;165413.00;0.55;286.36;0.00;0.00;0.62;;;;;22.90;1.00;;;;;;2261585;61;1102;-84
2021/08/25 11:27:29;17015.00;0.06;30.10;0.00;0.00;0.62;;;;;22.70;1.00;;;;;;2258322;61;1003;-84
2021/08/25 11:30:17;149540.00;0.50;259.01;0.00;0.00;0.62;;;;;22.90;1.00;;;;;;2261545;61;1450;-84
2021/08/25 11:32:48;29976.00;0.10;52.54;0.00;0.00;0.62;;;;;22.70;1.00;;;;;;2248824;61;2005;-85
2021/08/25 11:35:23;371705.00;1.24;641.17;23455.00;0.08;41.25;;;;;22.30;1.00;;;;;;2259117;61;1051;-85
2021/08/25 11:37:50;116855.00;0.39;202.66;0.00;0.00;0.62;;;;;22.60;1.00;;;;;;2257551;61;1011;-84
2021/08/25 11:40:22;225636.00;0.75;390.04;0.00;0.00;0.62;;;;;23.10;1.00;;;;;;2264279;61;1314;-84
2021/08/25 11:42:49;361562.00;1.21;623.73;28082.00;0.09;49.26;;;;;23.60;1.00;;;;;;2264184;61;1076;-86
2021/08/25 11:45:21;138175.00;0.46;239.42;62710.00;0.21;109.16;;;;;23.70;1.00;;;;;;2264201;61;955;-84
2021/08/25 11:47:52;0.00;0.00;0.62;0.00;0.00;0.62;;;;;23.00;1.00;;;;;;2264038;61;994;-85
2021/08/25 11:50:21;33575.00;0.11;58.77;0.00;0.00;0.62;;;;;23.00;1.00;;;;;;2264137;61;1582;-83
2021/08/25 11:52:48;0.00;0.00;0.62;0.00;0.00;0.62;;;;;23.00;1.00;;;;;;2260772;61;1908;-85
2021/08/25 11:55:16;0.00;0.00;0.62;0.00;0.00;0.62;;;;;23.20;1.00;;;;;;2264042;61;1058;-85
2021/08/25 11:57:45;21578.00;0.07;38.00;0.00;0.00;0.62;;;;;22.90;1.00;;;;;;2264183;61;1072;-85
2021/08/25 12:00:14;0.00;0.00;0.62;0.00;0.00;0.62;;;;;22.70;1.00;;;;;;2264025;61;1714;-84
2021/08/25 12:02:53;30375.00;0.10;53.23;0.00;0.00;0.62;;;;;22.60;1.00;;;;;;2254186;61;1015;-85
2021/08/25 12:05:22;80030.00;0.27;139.09;0.00;0.00;0.62;;;;;22.80;1.00;;;;;;2260039;61;1027;-85
2021/08/25 12:08:03;40476.00;0.13;70.71;0.00;0.00;0.62;;;;;22.50;1.00;;;;;;2260043;61;941;-84
2021/08/25 12:10:30;12695.00;0.04;22.62;0.00;0.00;0.62;;;;;22.70;1.00;;;;;;2267212;61;1408;-85
2021/08/25 12:12:57;217956.00;0.73;376.83;0.00;0.00;0.62;;;;;22.90;1.00;;;;;;2268091;61;1911;-85
2021/08/25 12:15:43;167590.00;0.56;290.12;0.00;0.00;0.62;;;;;23.00;1.00;;;;;;2268176;61;1023;-85
2021/08/25 12:18:12;42479.00;0.14;74.18;0.00;0.00;0.62;;;;;23.00;1.00;;;;;;2258126;61;994;-85
2021/08/25 12:20:41;139002.00;0.46;240.85;0.00;0.00;0.62;;;;;23.10;1.00;;;;;;2258042;61;1427;-85
2021/08/25 12:23:10;81814.00;0.27;142.17;0.00;0.00;0.62;;;;;22.90;1.00;;;;;;2263003;61;992;-85
2021/08/25 12:25:41;452806.00;1.51;780.61;92968.00;0.31;161.43;;;;;23.10;1.00;;;;;;2266274;61;975;-84
2021/08/25 12:28:09;157420.00;0.52;272.59;0.00;0.00;0.62;;;;;23.30;1.00;;;;;;2272100;61;1188;-84
2021/08/25 12:30:36;39207.00;0.13;68.52;0.00;0.00;0.62;;;;;23.50;1.00;;;;;;2272018;61;1412;-85
2021/08/25 12:33:05;39891.00;0.13;69.70;0.00;0.00;0.62;;;;;23.60;1.00;;;;;;2271967;61;2012;-85
2021/08/25 12:35:34;95417.00;0.32;165.66;0.00;0.00;0.62;;;;;23.40;1.00;;;;;;2272120;61;1030;-86
2021/08/25 12:38:02;0.00;0.00;0.62;0.00;0.00;0.62;;;;;23.30;1.00;;;;;;2262088;61;999;-85
2021/08/25 12:40:30;29236.00;0.10;51.26;0.00;0.00;0.62;;;;;23.30;1.00;;;;;;2273673;61;1316;-85
2021/08/25 12:42:58;30200.00;0.10;52.93;0.00;0.00;0.62;;;;;23.40;1.00;;;;;;2273604;61;1000;-85
2021/08/25 12:45:27;151880.00;0.51;263.05;0.00;0.00;0.62;;;;;23.50;1.00;;;;;;2273482;61;1032;-86
2021/08/25 12:47:56;116344.00;0.39;201.78;0.00;0.00;0.62;;;;;23.40;1.00;;;;;;2271980;61;933;-87
2021/08/25 12:50:25;133365.00;0.44;231.13;0.00;0.00;0.62;;;;;23.50;1.00;;;;;;2265211;61;1408;-86
2021/08/25 12:52:53;0.00;0.00;0.62;0.00;0.00;0.62;;;;;23.50;1.00;;;;;;2271903;61;1915;-85
2021/08/25 12:55:24;74953.00;0.25;130.32;0.00;0.00;0.62;;;;;23.00;1.00;;;;;;2271992;61;944;-85
2021/08/25 12:57:51;106958.00;0.36;185.58;40785.00;0.14;71.25;;;;;23.40;1.00;;;;;;2272003;61;1756;-85
2021/08/25 13:00:18;64991.00;0.22;113.10;0.00;0.00;0.62;;;;;23.30;1.00;;;;;;2272034;61;1344;-85
2021/08/25 13:02:45;54803.00;0.18;95.49;0.00;0.00;0.62;;;;;23.20;1.00;;;;;;2265406;61;1023;-85
2021/08/25 13:05:14;137882.00;0.46;238.92;0.00;0.00;0.62;;;;;23.30;1.00;;;;;;2273565;61;1066;-85
2021/08/25 13:07:42;65735.00;0.22;114.39;0.00;0.00;0.62;;;;;23.30;1.00;;;;;;2273506;61;1029;-86
2021/08/25 13:10:12;44747.00;0.15;78.10;0.00;0.00;0.62;;;;;23.60;1.00;;;;;;2280518;61;1304;-86
2021/08/25 13:12:39;210360.00;0.70;363.75;54656.00;0.18;95.24;;;;;23.70;1.00;;;;;;2273430;61;1994;-86
2021/08/25 13:15:07;87219.00;0.29;151.51;0.00;0.00;0.62;;;;;23.70;1.00;;;;;;2280620;61;1029;-86
2021/08/25 13:17:34;0.00;0.00;0.62;0.00;0.00;0.62;;;;;23.30;1.00;;;;;;2280606;61;1047;-84
2021/08/25 13:20:01;0.00;0.00;0.62;0.00;0.00;0.62;;;;;23.10;1.00;;;;;;2273450;61;1443;-84
2021/08/25 13:22:29;8058.00;0.03;14.58;0.00;0.00;0.62;;;;;22.90;1.00;;;;;;2273496;61;1014;-84
2021/08/25 13:24:56;0.00;0.00;0.62;0.00;0.00;0.62;;;;;22.90;1.00;;;;;;2280560;61;1037;-84
2021/08/25 13:27:24;0.00;0.00;0.62;0.00;0.00;0.62;;;;;23.00;1.00;;;;;;2280581;61;1051;-84
2021/08/25 13:29:51;154043.00;0.51;266.77;0.00;0.00;0.62;;;;;23.50;1.00;;;;;;2280488;61;1360;-84
2021/08/25 13:32:18;125580.00;0.42;217.71;0.00;0.00;0.62;;;;;23.20;1.00;;;;;;2280509;61;1059;-84
2021/08/25 13:34:45;1806940.00;6.02;3235.15;614199.00;2.05;1058.74;;;;;22.80;1.00;;;;;;2281055;61;1925;-84
2021/08/25 13:37:13;109402.00;0.36;189.80;0.00;0.00;0.62;;;;;22.80;1.00;;;;;;2281224;61;1115;-84
2021/08/25 13:39:40;263807.00;0.88;455.70;23730.00;0.08;41.73;;;;;22.70;1.00;;;;;;2272573;61;1404;-85
2021/08/25 13:42:07;191793.00;0.64;331.80;0.00;0.00;0.62;;;;;22.80;1.00;;;;;;2260573;61;976;-86
2021/08/25 13:44:36;76420.00;0.25;132.85;0.00;0.00;0.62;;;;;23.10;1.00;;;;;;2260608;61;1033;-85
2021/08/25 13:47:03;84638.00;0.28;147.05;0.00;0.00;0.62;;;;;23.30;1.00;;;;;;2260515;61;1003;-85
2021/08/25 13:49:30;136751.00;0.46;236.97;0.00;0.00;0.62;;;;;23.70;1.00;;;;;;2260474;61;1480;-85
2021/08/25 13:51:57;89657.00;0.30;155.72;0.00;0.00;0.62;;;;;23.20;1.00;;;;;;2253861;61;942;-85
2021/08/25 13:54:24;0.00;0.00;0.62;0.00;0.00;0.62;;;;;23.50;1.00;;;;;;2253876;61;2004;-86
2021/08/25 13:56:51;0.00;0.00;0.62;0.00;0.00;0.62;;;;;24.10;1.00;;;;;;2261418;61;1328;-86
2021/08/25 13:59:18;123452.00;0.41;214.04;0.00;0.00;0.62;;;;;23.80;1.00;;;;;;2269984;61;1426;-85
2021/08/25 14:01:46;140000.00;0.47;242.57;0.00;0.00;0.62;;;;;23.60;1.00;;;;;;2281143;61;1045;-86
2021/08/25 14:04:13;41564.00;0.14;72.59;0.00;0.00;0.62;;;;;23.70;1.00;;;;;;2281149;61;1099;-84
2021/08/25 14:06:40;129367.00;0.43;224.24;0.00;0.00;0.62;;;;;23.30;1.00;;;;;;2281120;61;1091;-85
2021/08/25 14:09:07;125574.00;0.42;217.70;0.00;0.00;0.62;;;;;23.00;1.00;;;;;;2281082;61;1289;-83
2021/08/25 14:11:34;116461.00;0.39;201.98;0.00;0.00;0.62;;;;;22.70;1.00;;;;;;2281157;61;1090;-84
2021/08/25 14:14:01;168352.00;0.56;291.43;0.00;0.00;0.62;;;;;22.60;1.00;;;;;;2281158;61;1917;-84
2021/08/25 14:16:28;123970.00;0.41;214.93;0.00;0.00;0.62;;;;;22.90;1.00;;;;;;2281203;61;1090;-86
2021/08/25 14:18:57;200079.00;0.67;346.06;0.00;0.00;0.62;;;;;23.20;1.00;;;;;;2281180;61;1108;-85
2021/08/25 14:21:24;118502.00;0.40;205.50;0.00;0.00;0.62;;;;;23.50;1.00;;;;;;2281169;61;1114;-86
2021/08/25 14:23:51;86654.00;0.29;150.53;0.00;0.00;0.62;;;;;23.80;1.00;;;;;;2281151;61;1127;-86
2021/08/25 14:26:18;143222.00;0.48;248.13;0.00;0.00;0.62;;;;;24.00;1.00;;;;;;2281108;61;1011;-86
2021/08/25 14:28:45;313581.00;1.05;541.26;13685.00;0.05;24.33;;;;;23.80;1.00;;;;;;2281111;61;1110;-83
2021/08/25 14:31:12;381283.00;1.27;657.63;0.00;0.00;0.62;;;;;23.80;1.00;;;;;;2281048;61;1308;-85
2021/08/25 14:33:38;241137.00;0.80;416.71;0.00;0.00;0.62;;;;;23.50;1.00;;;;;;2281113;61;2012;-86
2021/08/25 14:36:07;158056.00;0.53;273.69;0.00;0.00;0.62;;;;;23.70;1.00;;;;;;2281051;61;1809;-87
2021/08/25 14:38:34;208780.00;0.70;361.04;0.00;0.00;0.62;;;;;24.10;1.00;;;;;;2280990;61;1654;-87
2021/08/25 14:41:01;215900.00;0.72;373.29;0.00;0.00;0.62;;;;;23.80;1.00;;;;;;2281045;61;1288;-85
2021/08/25 14:43:28;108389.00;0.36;188.05;0.00;0.00;0.62;;;;;23.80;1.00;;;;;;2281046;61;935;-86
2021/08/25 14:45:55;176947.00;0.59;306.23;0.00;0.00;0.62;;;;;23.70;1.00;;;;;;2272352;61;991;-87
2021/08/25 14:48:22;458413.00;1.53;790.25;97332.00;0.32;168.97;;;;;23.50;1.00;;;;;;2264272;61;1057;-84
2021/08/25 14:50:49;104562.00;0.35;181.45;0.00;0.00;0.62;;;;;23.00;1.00;;;;;;2264203;61;1313;-85
2021/08/25 14:53:17;165258.00;0.55;286.10;0.00;0.00;0.62;;;;;23.00;1.00;;;;;;2264149;61;2001;-86
2021/08/25 14:55:44;25361.00;0.08;44.55;0.00;0.00;0.62;;;;;23.00;1.00;;;;;;2264271;61;1068;-86
2021/08/25 14:58:11;126785.00;0.42;219.78;0.00;0.00;0.62;;;;;23.40;1.00;;;;;;2264329;61;1076;-86
2021/08/25 15:00:38;172477.00;0.57;298.53;0.00;0.00;0.62;;;;;24.00;1.00;;;;;;2264338;61;1400;-86
2021/08/25 15:03:05;124390.00;0.41;215.65;0.00;0.00;0.62;;;;;24.00;1.00;;;;;;2265084;61;1139;-86
2021/08/25 15:05:31;253294.00;0.84;437.62;0.00;0.00;0.62;;;;;23.90;1.00;;;;;;2271917;61;1130;-86
2021/08/25 15:08:00;264560.00;0.88;456.99;40339.00;0.13;70.47;;;;;24.30;1.00;;;;;;2269723;61;1594;-86
2021/08/25 15:10:29;211266.00;0.70;365.31;42053.00;0.14;73.44;;;;;24.30;1.00;;;;;;2280944;61;1394;-86
2021/08/25 15:12:56;186295.00;0.62;322.33;0.00;0.00;0.62;;;;;24.40;1.00;;;;;;2280905;61;1012;-86
2021/08/25 15:15:23;136309.00;0.45;236.21;0.00;0.00;0.62;;;;;24.70;1.00;;;;;;2273777;61;2021;-84
2021/08/25 15:17:50;156411.00;0.52;270.86;0.00;0.00;0.62;;;;;24.90;1.00;;;;;;2280901;61;1142;-85
2021/08/25 15:20:18;137435.00;0.46;238.15;0.00;0.00;0.62;;;;;24.10;1.00;;;;;;2280802;61;1379;-85
2021/08/25 15:22:46;314939.00;1.05;543.60;0.00;0.00;0.62;;;;;23.80;1.00;;;;;;2280885;61;1079;-84
2021/08/25 15:25:15;183691.00;0.61;317.85;0.00;0.00;0.62;;;;;23.70;1.00;;;;;;2280906;61;1044;-86
2021/08/25 15:27:44;35988.00;0.12;62.95;0.00;0.00;0.62;;;;;23.60;1.00;;;;;;2280855;61;927;-85
2021/08/25 15:30:13;146026.00;0.49;252.96;0.00;0.00;0.62;;;;;23.50;1.00;;;;;;2280809;61;1322;-85
2021/08/25 15:32:41;56036.00;0.19;97.62;0.00;0.00;0.62;;;;;23.40;1.00;;;;;;2273750;61;1021;-86
2021/08/25 15:35:10;45696.00;0.15;79.74;0.00;0.00;0.62;;;;;23.80;1.00;;;;;;2280878;61;1996;-84
2021/08/25 15:37:37;0.00;0.00;0.62;0.00;0.00;0.62;;;;;24.20;1.00;;;;;;2280876;61;1171;-86
2021/08/25 15:40:04;27713.00;0.09;48.62;0.00;0.00;0.62;;;;;24.10;1.00;;;;;;2280891;61;1380;-85
2021/08/25 15:42:31;25962.00;0.09;45.59;0.00;0.00;0.62;;;;;24.30;1.00;;;;;;2273795;61;974;-86
2021/08/25 15:44:59;115315.00;0.38;200.00;0.00;0.00;0.62;;;;;24.10;1.00;;;;;;2280836;61;1033;-84
2021/08/25 15:47:29;78635.00;0.26;136.68;0.00;0.00;0.62;;;;;24.00;1.00;;;;;;2280812;61;1129;-86
2021/08/25 15:49:56;85058.00;0.28;147.77;0.00;0.00;0.62;;;;;23.90;1.00;;;;;;2280913;61;1352;-85
2021/08/25 15:52:23;111125.00;0.37;192.77;44346.00;0.15;77.41;;;;;23.90;1.00;;;;;;2280873;61;1128;-86
2021/08/25 15:54:50;257057.00;0.86;444.09;0.00;0.00;0.62;;;;;24.00;1.00;;;;;;2280821;61;1927;-86
2021/08/25 15:57:18;260674.00;0.87;450.31;0.00;0.00;0.62;;;;;24.00;1.00;;;;;;2280611;61;1046;-86
2021/08/25 15:59:45;28006.00;0.09;49.13;0.00;0.00;0.62;;;;;23.70;1.00;;;;;;2280802;61;1405;-87
2021/08/25 16:02:14;133466.00;0.44;231.31;0.00;0.00;0.62;;;;;23.80;1.00;;;;;;2280883;61;940;-86
2021/08/25 16:04:41;91327.00;0.30;158.60;0.00;0.00;0.62;;;;;24.00;1.00;;;;;;2280777;61;1099;-87
2021/08/25 16:07:08;101889.00;0.34;176.83;0.00;0.00;0.62;;;;;24.20;1.00;;;;;;2280684;61;1172;-86
2021/08/25 16:09:35;63259.00;0.21;110.11;0.00;0.00;0.62;;;;;24.10;1.00;;;;;;2280825;61;1371;-86
2021/08/25 16:12:02;317758.00;1.06;548.44;46106.00;0.15;80.45;;;;;24.30;1.00;;;;;;2280787;61;1075;-85
2021/08/25 16:14:29;201911.00;0.67;349.21;0.00;0.00;0.62;;;;;24.20;1.00;;;;;;2280737;61;2006;-85
2021/08/25 16:16:56;105917.00;0.35;183.78;0.00;0.00;0.62;;;;;24.00;1.00;;;;;;2280673;61;1122;-85
2021/08/25 16:19:24;242328.00;0.81;418.76;0.00;0.00;0.62;;;;;24.20;1.00;;;;;;2280667;61;1374;-85
2021/08/25 16:21:51;93280.00;0.31;161.97;0.00;0.00;0.62;;;;;24.50;1.00;;;;;;2280765;61;1125;-86
2021/08/25 16:24:18;167938.00;0.56;290.71;0.00;0.00;0.62;;;;;24.70;1.00;;;;;;2280738;61;1018;-85
2021/08/25 16:26:45;163279.00;0.54;282.69;0.00;0.00;0.62;;;;;24.50;1.00;;;;;;2280710;61;1146;-84
2021/08/25 16:29:12;268522.00;0.90;463.80;0.00;0.00;0.62;;;;;24.40;1.00;;;;;;2280654;61;1382;-85
2021/08/25 16:31:39;202286.00;0.67;349.86;0.00;0.00;0.62;;;;;24.10;1.00;;;;;;2272072;61;1066;-85
2021/08/25 16:34:07;122677.00;0.41;212.70;0.00;0.00;0.62;;;;;24.30;1.00;;;;;;2272103;61;1921;-85
2021/08/25 16:36:35;59252.00;0.20;103.18;0.00;0.00;0.62;;;;;24.40;1.00;;;;;;2272064;61;1758;-85
2021/08/25 16:39:02;193843.00;0.65;335.32;0.00;0.00;0.62;;;;;24.50;1.00;;;;;;2272075;61;1317;-85
2021/08/25 16:41:29;172310.00;0.57;298.25;0.00;0.00;0.62;;;;;24.10;1.00;;;;;;2272083;61;1120;-85
2021/08/25 16:43:57;213090.00;0.71;368.45;0.00;0.00;0.62;;;;;24.00;1.00;;;;;;2272169;61;1062;-85
2021/08/25 16:46:25;264802.00;0.88;457.41;120861.00;0.40;209.57;;;;;23.90;1.00;;;;;;2272158;61;1161;-86
2021/08/25 16:48:52;118283768.00;394.28;67036724.00;0.00;0.00;0.62;;;;;24.00;1.00;;;;;;2273122;61;1620;-86
2021/08/25 16:51:19;191812.00;0.64;331.83;0.00;0.00;0.62;;;;;23.90;1.00;;;;;;2280599;61;1341;-87
2021/08/25 16:53:47;138216.00;0.46;239.50;0.00;0.00;0.62;;;;;23.70;1.00;;;;;;2280621;61;1992;-85
2021/08/25 16:56:14;258447.00;0.86;446.48;0.00;0.00;0.62;;;;;23.40;1.00;;;;;;2280629;61;1059;-85
2021/08/25 16:58:41;130376.00;0.43;225.98;0.00;0.00;0.62;;;;;23.20;1.00;;;;;;2280513;61;1059;-85
2021/08/25 17:01:08;64123.00;0.21;111.60;0.00;0.00;0.62;;;;;23.50;1.00;;;;;;2280544;61;1289;-86
2021/08/25 17:03:35;258727.00;0.86;446.96;0.00;0.00;0.62;;;;;23.50;1.00;;;;;;2280558;61;1651;-85
2021/08/25 17:06:02;200172.00;0.67;346.22;0.00;0.00;0.62;;;;;23.50;1.00;;;;;;2280513;61;1105;-85
2021/08/25 17:08:29;125379.00;0.42;217.36;0.00;0.00;0.62;;;;;23.50;1.00;;;;;;2281142;61;1128;-86
2021/08/25 17:10:58;336517.00;1.12;580.69;0.00;0.00;0.62;;;;;23.70;1.00;;;;;;2281391;61;1322;-86
2021/08/25 17:13:25;99659.00;0.33;172.98;0.00;0.00;0.62;;;;;23.60;1.00;;;;;;2281417;61;1103;-85
2021/08/25 17:15:53;207332.00;0.69;358.54;0.00;0.00;0.62;;;;;23.60;1.00;;;;;;2281344;61;2005;-85
2021/08/25 17:18:20;134816.00;0.45;233.63;0.00;0.00;0.62;;;;;23.50;1.00;;;;;;2281280;61;1003;-84
2021/08/25 17:20:47;271755.00;0.91;469.36;18672.00;0.06;32.97;;;;;23.40;1.00;;;;;;2281249;61;1279;-85